Time;durP1;ratioP1;P1;durP2;ratioP2;P2;SDS_P1;SDS_P2;PMS_P1;PMS_P2;Temp;Humidity;BMP_temperature;BMP_pressure;BME280_temperature;BME280_humidity;BME280_pressure;Samples;Min_cycle;Max_cycle;Signal;HPM_P1;HPM_P2
2022/06/01 00:00:56;;;;;;;0.47;0.47;;;13.00;99.90;;;;;;4898048;29;20522;-68
2022/06/01 00:03:23;;;;;;;0.40;0.20;;;13.00;99.90;;;;;;4914046;29;20430;-68
2022/06/01 00:05:53;;;;;;;0.40;0.20;;;13.00;99.90;;;;;;4914805;29;20413;-68
2022/06/01 00:08:20;;;;;;;0.40;0.20;;;13.00;99.90;;;;;;4912126;29;20411;-68
2022/06/01 00:10:45;;;;;;;0.40;0.20;;;13.00;99.90;;;;;;4914755;29;20429;-68
2022/06/01 00:13:11;;;;;;;0.40;0.30;;;13.00;99.90;;;;;;4913985;29;20906;-68
2022/06/01 00:15:37;;;;;;;0.40;0.20;;;12.90;99.90;;;;;;4914626;29;20476;-68
2022/06/01 00:18:03;;;;;;;0.40;0.20;;;12.90;99.90;;;;;;4913967;29;20415;-70
2022/06/01 00:20:29;;;;;;;0.40;0.20;;;13.10;99.90;;;;;;4914517;29;20796;-68
2022/06/01 00:22:56;;;;;;;0.50;0.50;;;13.00;99.90;;;;;;4914493;29;20799;-68
2022/06/01 00:25:24;;;;;;;0.40;0.20;;;12.90;99.90;;;;;;4913629;29;20396;-68
2022/06/01 00:27:50;;;;;;;0.80;0.80;;;12.80;99.90;;;;;;4914467;29;20774;-68
2022/06/01 00:30:17;;;;;;;0.40;0.20;;;13.00;99.90;;;;;;4913705;29;20386;-68
2022/06/01 00:32:42;;;;;;;0.40;0.20;;;13.00;99.90;;;;;;4914677;29;20393;-68
2022/06/01 00:35:11;;;;;;;0.40;0.30;;;13.10;99.90;;;;;;4915465;29;20389;-68
2022/06/01 00:37:37;;;;;;;1.50;0.90;;;13.00;99.90;;;;;;4901348;29;20409;-68
2022/06/01 00:40:05;;;;;;;0.40;0.30;;;13.00;99.90;;;;;;4917898;29;20385;-70
2022/06/01 00:42:33;;;;;;;0.40;0.20;;;12.90;99.90;;;;;;4917951;29;20390;-68
2022/06/01 00:44:59;;;;;;;0.40;0.20;;;12.90;99.90;;;;;;4901456;29;20393;-68
2022/06/01 00:47:28;;;;;;;0.40;0.20;;;12.90;99.90;;;;;;4917332;29;20962;-68
2022/06/01 00:50:17;;;;;;;0.40;0.20;;;12.90;99.90;;;;;;4918045;29;20400;-68
2022/06/01 00:52:52;;;;;;;0.40;0.20;;;12.90;99.90;;;;;;4917896;29;20750;-68
2022/06/01 00:55:24;;;;;;;0.40;0.20;;;12.90;99.90;;;;;;4917215;29;20464;-68
2022/06/01 00:57:54;;;;;;;0.50;0.50;;;12.80;99.90;;;;;;4912671;29;20422;-68
2022/06/01 01:00:25;;;;;;;0.40;0.20;;;12.90;99.90;;;;;;4898268;29;20406;-68
2022/06/01 01:02:55;;;;;;;0.40;0.20;;;12.80;99.90;;;;;;4899156;29;20860;-68
2022/06/01 01:05:21;;;;;;;1.20;1.20;;;12.90;99.90;;;;;;4898096;29;20383;-68
2022/06/01 01:07:50;;;;;;;0.40;0.20;;;13.00;99.90;;;;;;4898934;29;20422;-68
2022/06/01 01:10:17;;;;;;;0.40;0.20;;;12.90;99.90;;;;;;4897981;29;20430;-68
2022/06/01 01:13:05;;;;;;;0.40;0.20;;;12.90;99.90;;;;;;4897753;29;20411;-68
2022/06/01 01:15:40;;;;;;;0.40;0.30;;;13.00;99.90;;;;;;4898644;29;20423;-68
2022/06/01 01:18:13;;;;;;;0.40;0.20;;;12.90;99.90;;;;;;4898106;29;20407;-69
2022/06/01 01:20:58;;;;;;;0.40;0.20;;;12.90;99.90;;;;;;4899044;29;20830;-68
2022/06/01 01:23:38;;;;;;;0.40;0.20;;;12.80;99.90;;;;;;4897880;29;20632;-67
2022/06/01 01:26:05;;;;;;;0.40;0.30;;;12.80;99.90;;;;;;4898296;29;20422;-69
2022/06/01 01:28:31;;;;;;;0.40;0.30;;;12.80;99.90;;;;;;4898124;29;20445;-68
2022/06/01 01:31:07;;;;;;;0.60;0.60;;;12.90;99.90;;;;;;4898522;29;20921;-67
2022/06/01 01:33:33;;;;;;;0.40;0.20;;;12.90;99.90;;;;;;4898609;29;20463;-68
2022/06/01 01:36:09;;;;;;;0.40;0.20;;;12.90;99.90;;;;;;4898534;29;20403;-68
2022/06/01 01:38:40;;;;;;;0.40;0.40;;;12.80;99.90;;;;;;4898572;29;20462;-68
2022/06/01 01:41:14;;;;;;;0.40;0.20;;;12.90;99.90;;;;;;4897778;29;20383;-69
2022/06/01 01:43:57;;;;;;;0.40;0.20;;;12.80;99.90;;;;;;4898304;29;20839;-68
2022/06/01 01:46:24;;;;;;;0.40;0.25;;;12.90;99.90;;;;;;4895992;29;20462;-67
2022/06/01 01:48:50;;;;;;;0.40;0.20;;;12.70;99.90;;;;;;4898252;29;20449;-67
2022/06/01 01:51:21;;;;;;;0.40;0.20;;;12.60;99.90;;;;;;4897046;29;20891;-67
2022/06/01 01:53:47;;;;;;;0.40;0.30;;;12.70;99.90;;;;;;4896861;29;20403;-68
2022/06/01 01:56:52;;;;;;;0.40;0.30;;;12.70;99.90;;;;;;4895961;29;20912;-68
2022/06/01 02:00:07;;;;;;;0.40;0.20;;;12.80;99.90;;;;;;4913280;29;20835;-68
2022/06/01 02:02:54;;;;;;;0.40;0.20;;;12.70;99.90;;;;;;4874219;29;20413;-67
2022/06/01 02:08:23;;;;;;;0.40;0.20;;;12.70;99.90;;;;;;4915859;29;20436;-67
2022/06/01 02:13:37;;;;;;;0.60;0.50;;;12.70;99.90;;;;;;4902395;29;20966;-68
2022/06/01 02:16:03;;;;;;;0.40;0.30;;;12.60;99.90;;;;;;4899487;29;20400;-68
2022/06/01 02:18:37;;;;;;;0.40;0.30;;;12.60;99.90;;;;;;4915798;29;20443;-67
2022/06/01 02:21:33;;;;;;;0.40;0.30;;;12.70;99.90;;;;;;4916475;29;20405;-68
2022/06/01 02:24:00;;;;;;;0.40;0.20;;;12.60;99.90;;;;;;4912192;29;20761;-68
2022/06/01 02:26:28;;;;;;;0.40;0.20;;;12.50;99.90;;;;;;4915342;29;20459;-68
2022/06/01 02:29:13;;;;;;;0.40;0.20;;;12.50;99.90;;;;;;4899647;29;20477;-68
2022/06/01 02:31:40;;;;;;;0.47;0.40;;;12.60;99.90;;;;;;4916098;29;20389;-68
2022/06/01 02:34:09;;;;;;;0.40;0.30;;;12.60;99.90;;;;;;4916331;29;20398;-68
2022/06/01 02:36:38;;;;;;;0.60;0.60;;;12.50;99.90;;;;;;4916050;29;20398;-68
2022/06/01 02:39:07;;;;;;;0.40;0.20;;;12.50;99.90;;;;;;4916181;29;20403;-67
2022/06/01 02:44:18;;;;;;;0.40;0.30;;;12.50;99.90;;;;;;4915471;29;20428;-68
2022/06/01 02:46:44;;;;;;;0.40;0.30;;;12.50;99.90;;;;;;4915953;29;20525;-68
2022/06/01 02:49:10;;;;;;;0.50;0.50;;;12.50;99.90;;;;;;4915933;29;20397;-69
2022/06/01 02:51:37;;;;;;;0.60;0.60;;;12.40;99.90;;;;;;4915595;29;20476;-68
2022/06/01 02:54:03;;;;;;;0.40;0.20;;;12.40;99.90;;;;;;4915891;29;20400;-68
2022/06/01 02:56:29;;;;;;;0.40;0.20;;;12.30;99.90;;;;;;4913614;29;21039;-68
2022/06/01 02:58:56;;;;;;;0.40;0.30;;;12.30;99.90;;;;;;4902016;29;20590;-68
2022/06/01 03:01:22;;;;;;;0.40;0.20;;;12.30;99.90;;;;;;4896179;29;20781;-68
2022/06/01 03:03:48;;;;;;;0.50;0.50;;;12.30;99.90;;;;;;4879910;29;20438;-68
2022/06/01 03:06:14;;;;;;;0.40;0.40;;;12.30;99.90;;;;;;4895688;29;20457;-70
2022/06/01 03:08:41;;;;;;;0.40;0.20;;;12.30;99.90;;;;;;4896867;29;20390;-68
2022/06/01 03:11:07;;;;;;;0.40;0.20;;;12.30;99.90;;;;;;4895515;29;20927;-68
2022/06/01 03:13:33;;;;;;;0.60;0.60;;;12.30;99.90;;;;;;4895840;29;20631;-68
2022/06/01 03:15:58;;;;;;;0.40;0.30;;;12.20;99.90;;;;;;4895326;29;20411;-68
2022/06/01 03:18:24;;;;;;;0.40;0.20;;;12.20;99.90;;;;;;4895892;29;20403;-68
2022/06/01 03:20:50;;;;;;;0.40;0.20;;;12.20;99.90;;;;;;4896736;29;20387;-68
2022/06/01 03:23:19;;;;;;;0.40;0.30;;;12.40;99.90;;;;;;4895733;29;20456;-68
2022/06/01 03:25:45;;;;;;;0.40;0.30;;;12.20;99.90;;;;;;4896366;29;20458;-68
2022/06/01 03:28:10;;;;;;;0.40;0.30;;;12.20;99.90;;;;;;4896003;29;20407;-69
2022/06/01 03:30:36;;;;;;;0.40;0.20;;;12.10;99.90;;;;;;4895863;29;20401;-68
2022/06/01 03:33:03;;;;;;;0.40;0.20;;;12.10;99.90;;;;;;4896055;29;20403;-68
2022/06/01 03:35:31;;;;;;;0.40;0.25;;;12.10;99.90;;;;;;4895415;29;20887;-69
2022/06/01 03:37:58;;;;;;;0.40;0.20;;;12.10;99.90;;;;;;4896225;29;20911;-68
2022/06/01 03:40:25;;;;;;;0.40;0.20;;;12.10;99.90;;;;;;4895388;29;20397;-69
2022/06/01 03:42:52;;;;;;;0.40;0.40;;;12.20;99.90;;;;;;4896221;29;20804;-69
2022/06/01 03:48:03;;;;;;;0.40;0.30;;;12.20;99.90;;;;;;4895933;29;20451;-68
2022/06/01 03:50:29;;;;;;;0.40;0.20;;;12.20;99.90;;;;;;4895418;29;20435;-69
2022/06/01 03:52:55;;;;;;;0.40;0.20;;;12.10;99.90;;;;;;4896012;29;20387;-68
2022/06/01 03:55:21;;;;;;;0.50;0.50;;;12.10;99.90;;;;;;4895292;29;20721;-69
2022/06/01 03:57:47;;;;;;;0.40;0.20;;;12.10;99.90;;;;;;4900166;29;20496;-69
2022/06/01 04:00:21;;;;;;;0.40;0.20;;;12.10;99.90;;;;;;4914761;29;20389;-70
2022/06/01 04:02:47;;;;;;;0.40;0.20;;;12.10;99.90;;;;;;4915007;29;20400;-69
2022/06/01 04:05:12;;;;;;;0.40;0.20;;;12.00;99.90;;;;;;4914861;29;20401;-69
2022/06/01 04:07:38;;;;;;;0.40;0.20;;;12.00;99.90;;;;;;4914332;29;20420;-69
2022/06/01 04:10:04;;;;;;;0.40;0.30;;;12.10;99.90;;;;;;4914188;29;20398;-68
2022/06/01 04:12:30;;;;;;;0.40;0.20;;;12.10;99.90;;;;;;4913834;29;20397;-69
2022/06/01 04:14:56;;;;;;;0.40;0.20;;;12.10;99.90;;;;;;4914750;29;20696;-68
2022/06/01 04:17:22;;;;;;;0.40;0.30;;;12.10;99.90;;;;;;4913859;29;20901;-69
2022/06/01 04:19:47;;;;;;;0.40;0.20;;;12.10;99.90;;;;;;4913341;29;20441;-68
2022/06/01 04:22:14;;;;;;;0.40;0.20;;;12.20;99.90;;;;;;4914664;29;20421;-69
2022/06/01 04:24:40;;;;;;;0.40;0.20;;;12.20;99.90;;;;;;4913830;29;20501;-69
2022/06/01 04:27:07;;;;;;;0.40;0.20;;;12.30;99.90;;;;;;4914272;29;20557;-69
2022/06/01 04:29:33;;;;;;;0.40;0.20;;;12.40;99.90;;;;;;4913877;29;20429;-69
2022/06/01 04:32:28;;;;;;;0.40;0.20;;;12.30;99.90;;;;;;4914867;29;20389;-69
2022/06/01 04:34:54;;;;;;;0.40;0.30;;;12.50;99.90;;;;;;4913984;29;20461;-70
2022/06/01 04:37:20;;;;;;;0.40;0.20;;;12.40;99.90;;;;;;4894239;29;20475;-69
2022/06/01 04:39:45;;;;;;;1.10;0.70;;;12.50;99.90;;;;;;4895720;29;20391;-69
2022/06/01 04:42:11;;;;;;;0.40;0.20;;;12.50;99.90;;;;;;4895889;29;20395;-69
2022/06/01 04:44:37;;;;;;;0.40;0.20;;;12.50;99.90;;;;;;4894837;29;20762;-69
2022/06/01 04:47:04;;;;;;;0.40;0.20;;;12.50;99.90;;;;;;4894392;29;20450;-69
2022/06/01 04:49:29;;;;;;;0.40;0.20;;;12.60;99.90;;;;;;4894698;29;20411;-69
2022/06/01 04:51:55;;;;;;;0.40;0.20;;;12.60;99.90;;;;;;4895642;29;20387;-69
2022/06/01 04:54:21;;;;;;;0.40;0.20;;;12.60;99.90;;;;;;4894346;29;20399;-69
2022/06/01 04:56:46;;;;;;;0.40;0.30;;;12.70;99.90;;;;;;4895267;29;20403;-69
2022/06/01 04:59:15;;;;;;;0.40;0.20;;;12.70;99.90;;;;;;4910523;29;20433;-69
2022/06/01 05:01:40;;;;;;;0.40;0.20;;;12.70;99.90;;;;;;4913408;29;20390;-69
2022/06/01 05:04:06;;;;;;;0.50;0.40;;;12.70;99.90;;;;;;4914474;29;20453;-69
2022/06/01 05:06:32;;;;;;;0.40;0.20;;;12.70;99.90;;;;;;4913373;29;20424;-69
2022/06/01 05:08:57;;;;;;;0.40;0.20;;;12.70;99.90;;;;;;4913762;29;20405;-68
2022/06/01 05:11:23;;;;;;;0.40;0.20;;;12.90;99.90;;;;;;4913399;29;20408;-69
2022/06/01 05:13:49;;;;;;;0.40;0.30;;;13.00;99.90;;;;;;4914129;29;20396;-70
2022/06/01 05:16:15;;;;;;;0.40;0.30;;;13.00;99.90;;;;;;4913883;29;20786;-69
2022/06/01 05:18:41;;;;;;;0.40;0.20;;;13.10;99.90;;;;;;4896263;29;20407;-69
2022/06/01 05:21:08;;;;;;;0.40;0.30;;;13.10;99.90;;;;;;4915749;29;20547;-69
2022/06/01 05:23:33;;;;;;;0.40;0.20;;;13.20;99.90;;;;;;4916751;29;20401;-69
2022/06/01 05:25:59;;;;;;;0.40;0.20;;;13.30;99.90;;;;;;4917424;29;20424;-69
2022/06/01 05:28:28;;;;;;;0.40;0.20;;;13.40;99.90;;;;;;4916321;29;20441;-70
2022/06/01 05:31:02;;;;;;;0.40;0.20;;;13.40;99.90;;;;;;4917266;29;20400;-69
2022/06/01 05:33:28;;;;;;;0.40;0.30;;;13.50;99.90;;;;;;4916558;29;20409;-69
2022/06/01 05:35:54;;;;;;;0.40;0.20;;;13.50;99.90;;;;;;4917247;29;20447;-69
2022/06/01 05:38:20;;;;;;;0.40;0.20;;;13.60;99.90;;;;;;4916952;29;20525;-70
2022/06/01 05:40:46;;;;;;;0.40;0.20;;;13.70;99.90;;;;;;4916743;29;20922;-69
2022/06/01 05:43:13;;;;;;;0.40;0.20;;;13.80;99.90;;;;;;4900018;29;20871;-69
2022/06/01 05:45:40;;;;;;;0.40;0.28;;;13.80;99.90;;;;;;4916036;29;20389;-69
2022/06/01 05:48:08;;;;;;;0.40;0.30;;;14.00;99.90;;;;;;4917329;29;20484;-69
2022/06/01 05:50:34;;;;;;;0.40;0.20;;;14.10;99.90;;;;;;4916237;29;20416;-69
2022/06/01 05:53:00;;;;;;;0.40;0.20;;;14.20;99.90;;;;;;4916887;29;20742;-70
2022/06/01 05:55:26;;;;;;;0.40;0.30;;;14.20;99.90;;;;;;4916215;29;20386;-70
2022/06/01 05:57:52;;;;;;;0.40;0.20;;;14.30;99.90;;;;;;4911427;29;20915;-69
2022/06/01 06:00:18;;;;;;;0.50;0.40;;;14.30;99.90;;;;;;4897983;29;20542;-69
2022/06/01 06:02:43;;;;;;;0.40;0.40;;;14.50;99.90;;;;;;4897278;29;20575;-69
2022/06/01 06:07:55;;;;;;;0.40;0.20;;;14.60;99.90;;;;;;4897728;29;20486;-67
2022/06/01 06:10:22;;;;;;;0.40;0.20;;;14.70;99.90;;;;;;4897223;29;20407;-69
2022/06/01 06:12:47;;;;;;;0.40;0.20;;;14.70;99.90;;;;;;4880361;29;20918;-69
2022/06/01 06:15:13;;;;;;;0.40;0.30;;;14.80;99.90;;;;;;4897696;29;20391;-69
2022/06/01 06:17:39;;;;;;;0.40;0.20;;;14.90;99.90;;;;;;4896982;29;20458;-70
2022/06/01 06:20:06;;;;;;;0.40;0.40;;;15.00;99.90;;;;;;4897597;29;20391;-69
2022/06/01 06:22:32;;;;;;;0.40;0.40;;;15.00;99.90;;;;;;4896941;29;20410;-70
2022/06/01 06:24:58;;;;;;;0.40;0.20;;;15.10;99.90;;;;;;4897792;29;20939;-68
2022/06/01 06:27:26;;;;;;;0.40;0.30;;;15.20;99.90;;;;;;4896976;29;20445;-71
2022/06/01 06:29:53;;;;;;;0.40;0.30;;;15.20;99.90;;;;;;4897378;29;20490;-69
2022/06/01 06:32:19;;;;;;;0.40;0.20;;;15.40;99.90;;;;;;4895324;29;20415;-69
2022/06/01 06:34:45;;;;;;;0.40;0.20;;;15.50;99.90;;;;;;4896374;29;21011;-69
2022/06/01 06:37:11;;;;;;;0.40;0.20;;;15.50;99.90;;;;;;4897157;29;20398;-69
2022/06/01 06:39:37;;;;;;;0.40;0.20;;;15.60;99.90;;;;;;4896851;29;20425;-70
2022/06/01 06:42:04;;;;;;;0.40;0.20;;;15.70;99.90;;;;;;4896131;29;20387;-69
2022/06/01 06:44:30;;;;;;;1.80;0.70;;;15.80;99.90;;;;;;4896387;29;20398;-70
2022/06/01 06:46:56;;;;;;;0.40;0.20;;;15.90;99.90;;;;;;4896946;29;20462;-69
2022/06/01 06:49:22;;;;;;;0.40;0.20;;;16.00;99.90;;;;;;4895020;29;20443;-70
2022/06/01 06:51:49;;;;;;;0.40;0.30;;;16.20;99.90;;;;;;4894928;29;20419;-70
2022/06/01 06:54:15;;;;;;;0.40;0.20;;;16.30;99.90;;;;;;4891998;29;20413;-70
2022/06/01 06:56:41;;;;;;;0.40;0.40;;;16.50;99.90;;;;;;4904430;29;20500;-70
2022/06/01 06:59:07;;;;;;;0.40;0.20;;;16.80;99.90;;;;;;4898537;29;20437;-69
2022/06/01 07:01:33;;;;;;;0.40;0.20;;;17.10;99.90;;;;;;4897322;29;20441;-70
2022/06/01 07:03:58;;;;;;;0.40;0.30;;;17.60;99.90;;;;;;4891480;29;20574;-70
2022/06/01 07:06:25;;;;;;;0.40;0.30;;;17.60;99.90;;;;;;4877992;29;20413;-71
2022/06/01 07:08:54;;;;;;;0.40;0.30;;;17.80;99.90;;;;;;4886981;29;20407;-69
2022/06/01 07:11:22;;;;;;;0.40;0.20;;;18.00;99.90;;;;;;4915585;29;20393;-69
2022/06/01 07:13:48;;;;;;;0.40;0.20;;;18.20;99.90;;;;;;4909156;29;21073;-68
2022/06/01 07:16:18;;;;;;;0.40;0.20;;;18.50;99.90;;;;;;4895335;29;20502;-69
2022/06/01 07:18:46;;;;;;;0.40;0.25;;;18.60;99.90;;;;;;4890746;29;20494;-69
2022/06/01 07:21:14;;;;;;;0.40;0.20;;;18.80;99.90;;;;;;4907985;29;20862;-69
2022/06/01 07:23:41;;;;;;;0.70;0.60;;;18.90;99.80;;;;;;4887795;29;20396;-69
2022/06/01 07:26:10;;;;;;;0.40;0.30;;;19.20;98.40;;;;;;4893781;29;20415;-69
2022/06/01 07:28:36;;;;;;;0.50;0.40;;;19.40;96.40;;;;;;4890731;29;20436;-68
2022/06/01 07:31:04;;;;;;;0.40;0.20;;;19.50;96.00;;;;;;4877962;29;20414;-70
2022/06/01 07:33:30;;;;;;;0.40;0.20;;;19.70;94.40;;;;;;4912946;29;20791;-71
2022/06/01 07:35:58;;;;;;;0.40;0.20;;;19.70;92.90;;;;;;4894527;29;20865;-69
2022/06/01 07:43:57;;;;;;;0.40;0.20;;;19.60;92.60;;;;;;4898400;29;20924;-70
2022/06/01 07:46:23;;;;;;;0.40;0.20;;;19.70;93.90;;;;;;4896188;29;20454;-70
2022/06/01 07:48:49;;;;;;;0.40;0.30;;;19.60;94.20;;;;;;4895341;29;21103;-69
2022/06/01 07:51:16;;;;;;;0.40;0.30;;;19.80;93.60;;;;;;4895739;29;20398;-68
2022/06/01 07:53:42;;;;;;;0.40;0.30;;;20.00;92.60;;;;;;4896386;29;20916;-69
2022/06/01 07:56:09;;;;;;;1.10;0.80;;;20.20;92.70;;;;;;4901775;29;20410;-68
2022/06/01 07:58:35;;;;;;;0.40;0.20;;;20.10;90.80;;;;;;4905365;29;20560;-71
2022/06/01 08:01:01;;;;;;;0.40;0.20;;;20.10;90.30;;;;;;4913916;29;20413;-68
2022/06/01 08:03:28;;;;;;;0.40;0.20;;;20.00;91.00;;;;;;4909745;29;20419;-69
2022/06/01 08:05:53;;;;;;;0.40;0.20;;;20.00;91.00;;;;;;4891214;29;20444;-69
2022/06/01 08:08:19;;;;;;;0.40;0.20;;;20.10;90.20;;;;;;4909186;29;20475;-69
2022/06/01 08:10:45;;;;;;;0.40;0.20;;;20.20;89.50;;;;;;4912254;29;20441;-68
2022/06/01 08:13:13;;;;;;;0.40;0.30;;;20.20;89.40;;;;;;4895828;29;20879;-69
2022/06/01 08:15:45;;;;;;;0.40;0.20;;;20.20;87.30;;;;;;4894727;29;20479;-69
2022/06/01 08:18:14;;;;;;;0.40;0.20;;;20.10;86.50;;;;;;4895668;29;20395;-68
2022/06/01 08:20:40;;;;;;;0.40;0.20;;;20.10;85.40;;;;;;4893072;29;20426;-70
2022/06/01 08:23:06;;;;;;;0.40;0.30;;;20.10;87.90;;;;;;4898432;29;20899;-70
2022/06/01 08:25:33;;;;;;;0.40;0.20;;;20.10;87.70;;;;;;4895770;29;20424;-71
2022/06/01 08:27:59;;;;;;;0.40;0.20;;;20.10;86.00;;;;;;4897209;29;20447;-67
2022/06/01 08:30:26;;;;;;;0.40;0.20;;;20.10;82.20;;;;;;4909553;29;20449;-68
2022/06/01 08:32:53;;;;;;;0.40;0.30;;;20.10;77.00;;;;;;4900415;29;20497;-69
2022/06/01 08:35:33;;;;;;;0.40;0.20;;;20.20;73.20;;;;;;4891698;29;20488;-68
2022/06/01 08:38:00;;;;;;;0.40;0.40;;;20.50;75.60;;;;;;4895915;29;20436;-69
2022/06/01 08:40:33;;;;;;;0.40;0.20;;;20.60;77.80;;;;;;4897653;29;20503;-69
2022/06/01 08:43:14;;;;;;;0.40;0.20;;;20.60;79.70;;;;;;4895525;29;20896;-69
2022/06/01 08:45:47;;;;;;;0.40;0.40;;;20.50;80.30;;;;;;4897970;29;20418;-69
2022/06/01 08:48:22;;;;;;;0.40;0.20;;;20.50;78.50;;;;;;4890665;29;20499;-68
2022/06/01 08:50:49;;;;;;;0.40;0.30;;;20.70;73.20;;;;;;4895721;29;20401;-68
2022/06/01 08:53:14;;;;;;;0.40;0.20;;;20.70;74.50;;;;;;4904402;29;20405;-69
2022/06/01 08:55:57;;;;;;;0.40;0.20;;;20.50;77.50;;;;;;4900989;29;20868;-68
2022/06/01 08:58:38;;;;;;;0.40;0.20;;;20.90;75.10;;;;;;4911417;29;20614;-68
2022/06/01 09:01:26;;;;;;;0.40;0.20;;;21.00;74.90;;;;;;4909922;29;20888;-68
2022/06/01 09:04:05;;;;;;;0.40;0.30;;;21.10;75.50;;;;;;4898241;29;20775;-68
2022/06/01 09:06:38;;;;;;;0.40;0.20;;;20.90;76.20;;;;;;4899042;29;20422;-68
2022/06/01 09:09:34;;;;;;;0.40;0.20;;;20.80;77.70;;;;;;4889635;29;20420;-68
2022/06/01 09:12:01;;;;;;;0.40;0.30;;;21.10;75.10;;;;;;4884322;29;20923;-68
2022/06/01 09:14:35;;;;;;;0.40;0.20;;;21.10;76.60;;;;;;4922219;29;20484;-69
2022/06/01 09:17:02;;;;;;;0.40;0.20;;;21.20;76.40;;;;;;4888830;29;20406;-69
2022/06/01 09:22:38;;;;;;;0.40;0.20;;;21.30;71.20;;;;;;4917544;29;20484;-69
2022/06/01 09:25:08;;;;;;;0.40;0.20;;;21.30;71.20;;;;;;4901558;29;20419;-69
2022/06/01 09:27:35;;;;;;;0.90;0.90;;;21.40;67.50;;;;;;4894757;29;20451;-70
2022/06/01 09:30:26;;;;;;;0.40;0.20;;;21.40;68.30;;;;;;4890542;29;20412;-68
2022/06/01 09:33:23;;;;;;;0.40;0.20;;;21.70;68.10;;;;;;4885426;29;20431;-68
2022/06/01 09:36:25;;;;;;;0.40;0.20;;;21.50;66.40;;;;;;4897940;29;20420;-68
2022/06/01 09:38:56;;;;;;;0.40;0.20;;;21.40;67.40;;;;;;4892868;29;20420;-67
2022/06/01 09:41:36;;;;;;;0.40;0.20;;;21.20;66.80;;;;;;4885574;29;20416;-67
2022/06/01 09:44:06;;;;;;;0.40;0.30;;;21.30;61.40;;;;;;4886685;29;20440;-68
2022/06/01 09:46:53;;;;;;;0.40;0.20;;;21.20;62.40;;;;;;4893139;29;20426;-69
2022/06/01 09:49:27;;;;;;;0.40;0.20;;;21.20;65.10;;;;;;4881021;29;20404;-68
2022/06/01 09:52:08;;;;;;;0.40;0.20;;;21.30;66.50;;;;;;4885552;29;20835;-68
2022/06/01 09:54:41;;;;;;;0.40;0.20;;;21.20;63.90;;;;;;4907377;29;20388;-69
2022/06/01 09:57:28;;;;;;;0.40;0.30;;;21.10;65.80;;;;;;4886340;29;20405;-69
2022/06/01 10:08:31;;;;;;;0.40;0.20;;;21.30;68.30;;;;;;4882979;29;20959;-68
2022/06/01 10:10:59;;;;;;;0.40;0.20;;;21.40;66.70;;;;;;4895872;29;21032;-68
2022/06/01 10:13:33;;;;;;;0.40;0.30;;;21.40;65.10;;;;;;4878760;29;20397;-68
2022/06/01 10:16:35;;;;;;;0.40;0.20;;;21.40;64.70;;;;;;4899029;29;20415;-68
2022/06/01 10:19:03;;;;;;;0.40;0.30;;;21.20;64.80;;;;;;4900402;29;20906;-69
2022/06/01 10:21:38;;;;;;;0.40;0.30;;;21.10;65.60;;;;;;4905906;29;20389;-69
2022/06/01 10:24:11;;;;;;;0.40;0.20;;;21.00;65.80;;;;;;4896990;29;20894;-68
2022/06/01 10:26:44;;;;;;;0.40;0.30;;;20.90;65.50;;;;;;4906509;29;20433;-69
2022/06/01 10:29:18;;;;;;;0.40;0.30;;;21.00;65.30;;;;;;4914925;29;20417;-69
2022/06/01 10:31:58;;;;;;;0.40;0.30;;;20.90;68.10;;;;;;4908454;29;20497;-69
2022/06/01 10:34:39;;;;;;;0.40;0.30;;;20.80;68.20;;;;;;4903492;29;20481;-68
2022/06/01 10:37:32;;;;;;;0.40;0.20;;;20.80;65.70;;;;;;4898335;29;20395;-68
2022/06/01 10:40:01;;;;;;;0.40;0.30;;;20.90;66.30;;;;;;4895732;29;20481;-67
2022/06/01 10:45:33;;;;;;;0.40;0.20;;;20.70;66.50;;;;;;4896598;29;20701;-69
2022/06/01 10:48:11;;;;;;;0.40;0.20;;;20.70;66.60;;;;;;4896274;29;20415;-67
2022/06/01 10:50:45;;;;;;;0.40;0.20;;;20.60;66.50;;;;;;4897253;29;20422;-68
2022/06/01 10:53:42;;;;;;;0.40;0.30;;;20.70;67.10;;;;;;4896985;29;20434;-69
2022/06/01 10:56:08;;;;;;;0.40;0.20;;;20.60;67.60;;;;;;4895585;29;20422;-69
2022/06/01 10:58:35;;;;;;;0.40;0.20;;;20.80;67.90;;;;;;4905173;29;20417;-67
2022/06/01 11:01:00;;;;;;;0.40;0.20;;;20.70;67.80;;;;;;4905479;29;20996;-69
2022/06/01 11:03:51;;;;;;;0.40;0.20;;;20.80;68.50;;;;;;4884876;29;20412;-67
2022/06/01 11:06:46;;;;;;;0.40;0.30;;;20.70;67.70;;;;;;4904809;29;20425;-69
2022/06/01 11:09:25;;;;;;;0.40;0.20;;;20.70;68.80;;;;;;4899777;29;20395;-68
2022/06/01 11:12:02;;;;;;;0.40;0.30;;;20.70;68.60;;;;;;4884003;29;20448;-68
2022/06/01 11:15:01;;;;;;;0.40;0.20;;;20.70;68.10;;;;;;4877865;29;20404;-68
2022/06/01 11:17:45;;;;;;;0.40;0.20;;;20.70;69.20;;;;;;4889341;29;20908;-68
2022/06/01 11:20:14;;;;;;;0.50;0.50;;;20.60;69.00;;;;;;4896218;29;20395;-69
2022/06/01 11:23:08;;;;;;;0.40;0.20;;;20.70;68.60;;;;;;4896098;29;20406;-70
2022/06/01 11:26:17;;;;;;;0.40;0.20;;;20.90;69.30;;;;;;4901227;29;20422;-69
2022/06/01 11:29:16;;;;;;;0.40;0.20;;;21.00;68.60;;;;;;4887843;29;20431;-71
2022/06/01 11:31:45;;;;;;;0.40;0.30;;;21.10;68.70;;;;;;4877520;29;20389;-70
2022/06/01 11:34:22;;;;;;;0.40;0.20;;;21.30;68.90;;;;;;4879304;29;20448;-69
2022/06/01 11:37:12;;;;;;;0.40;0.30;;;21.30;70.40;;;;;;4899070;29;20416;-70
2022/06/01 11:39:49;;;;;;;0.40;0.20;;;21.20;70.40;;;;;;4892563;29;20426;-69
2022/06/01 11:42:48;;;;;;;0.40;0.20;;;21.00;72.80;;;;;;4891765;29;20422;-69
2022/06/01 11:45:22;;;;;;;0.40;0.20;;;20.80;73.30;;;;;;4897736;29;20482;-68
2022/06/01 11:48:00;;;;;;;0.40;0.20;;;20.50;73.90;;;;;;4895173;29;20414;-68
2022/06/01 11:51:03;;;;;;;0.40;0.20;;;20.40;74.60;;;;;;4898697;29;20578;-68
2022/06/01 11:53:43;;;;;;;0.40;0.20;;;20.50;74.30;;;;;;4894202;29;20556;-68
2022/06/01 11:56:33;;;;;;;0.40;0.20;;;20.40;73.80;;;;;;4906355;29;20505;-68
2022/06/01 11:59:01;;;;;;;0.40;0.30;;;20.50;73.90;;;;;;4895684;29;20855;-69
2022/06/01 12:01:45;;;;;;;0.40;0.30;;;20.30;75.00;;;;;;4904156;29;20425;-69
2022/06/01 12:04:32;;;;;;;0.40;0.20;;;20.40;78.10;;;;;;4896819;29;20422;-69
2022/06/01 12:07:01;;;;;;;0.40;0.20;;;20.40;76.70;;;;;;4885006;29;20455;-69
2022/06/01 12:09:34;;;;;;;0.40;0.20;;;20.50;75.50;;;;;;4898266;29;20415;-69
2022/06/01 12:12:00;;;;;;;0.40;0.20;;;20.60;77.30;;;;;;4897717;29;20760;-69
2022/06/01 12:14:36;;;;;;;0.40;0.20;;;20.60;76.80;;;;;;4900038;29;20414;-69
2022/06/01 12:17:22;;;;;;;0.40;0.20;;;20.60;77.30;;;;;;4904542;29;20422;-69
2022/06/01 12:19:50;;;;;;;0.40;0.30;;;20.60;80.20;;;;;;4891290;29;20415;-69
2022/06/01 12:28:54;;;;;;;0.40;0.20;;;21.80;66.70;;;;;;4895643;29;20522;-67
2022/06/01 12:31:20;;;;;;;0.40;0.30;;;21.80;66.90;;;;;;4901163;29;20396;-67
2022/06/01 12:34:04;;;;;;;0.40;0.20;;;21.90;66.90;;;;;;4897613;29;20429;-69
2022/06/01 12:36:57;;;;;;;0.40;0.30;;;22.10;67.80;;;;;;4900248;29;20422;-68
2022/06/01 12:39:38;;;;;;;0.40;0.30;;;22.10;67.00;;;;;;4897787;29;20419;-68
2022/06/01 12:42:14;;;;;;;0.40;0.30;;;22.90;66.40;;;;;;4903828;29;20963;-68
2022/06/01 12:44:42;;;;;;;0.40;0.30;;;22.70;66.40;;;;;;4915043;29;20912;-68
2022/06/01 12:47:22;;;;;;;0.40;0.30;;;22.60;65.90;;;;;;4904848;29;20550;-69
2022/06/01 12:49:48;;;;;;;0.40;0.20;;;22.30;67.00;;;;;;4904217;29;20464;-69
2022/06/01 12:52:24;;;;;;;0.40;0.30;;;22.30;65.10;;;;;;4908326;29;20394;-69
2022/06/01 12:54:50;;;;;;;0.40;0.20;;;22.00;69.60;;;;;;4912072;29;20412;-70
2022/06/01 12:57:31;;;;;;;0.40;0.20;;;21.90;67.90;;;;;;4917054;29;20413;-69
2022/06/01 13:00:01;;;;;;;0.40;0.30;;;21.80;65.40;;;;;;4916123;29;20774;-68
2022/06/01 13:02:28;;;;;;;0.40;0.20;;;21.70;65.20;;;;;;4901456;29;20502;-68
2022/06/01 13:04:56;;;;;;;0.40;0.20;;;21.50;63.30;;;;;;4901895;29;20415;-69
2022/06/01 13:07:32;;;;;;;0.40;0.30;;;21.50;64.30;;;;;;4902052;29;20438;-68
2022/06/01 13:10:14;;;;;;;0.40;0.30;;;21.70;64.30;;;;;;4916932;29;20476;-69
2022/06/01 13:12:39;;;;;;;0.40;0.30;;;21.60;64.20;;;;;;4886899;29;20401;-68
2022/06/01 13:15:16;;;;;;;0.40;0.30;;;21.50;63.40;;;;;;4891749;29;20507;-68
2022/06/01 13:18:05;;;;;;;0.40;0.20;;;21.50;61.50;;;;;;4890475;29;20407;-69
2022/06/01 13:20:34;;;;;;;0.40;0.20;;;21.30;61.90;;;;;;4893954;29;20430;-68
2022/06/01 13:23:01;;;;;;;0.40;0.20;;;21.50;62.10;;;;;;4886990;29;20460;-69
2022/06/01 13:25:33;;;;;;;0.40;0.20;;;21.50;62.70;;;;;;4914907;29;20409;-69
2022/06/01 13:27:59;;;;;;;0.40;0.20;;;21.50;59.30;;;;;;4904311;29;20527;-69
2022/06/01 13:30:29;;;;;;;0.40;0.30;;;21.70;58.20;;;;;;4906271;29;20458;-69
2022/06/01 13:32:57;;;;;;;0.40;0.30;;;21.80;58.90;;;;;;4905761;29;20383;-69
2022/06/01 13:35:42;;;;;;;0.40;0.30;;;21.80;59.00;;;;;;4906475;29;20398;-69
2022/06/01 13:38:18;;;;;;;0.40;0.20;;;21.70;57.30;;;;;;4904280;29;21181;-68
2022/06/01 13:41:00;;;;;;;0.40;0.20;;;21.60;57.30;;;;;;4904681;29;20416;-69
2022/06/01 13:43:26;;;;;;;0.40;0.30;;;21.50;57.00;;;;;;4904648;29;20391;-69
2022/06/01 13:45:55;;;;;;;0.40;0.30;;;21.40;58.50;;;;;;4906434;29;20413;-68
2022/06/01 13:48:34;;;;;;;0.40;0.20;;;21.20;57.80;;;;;;4902895;29;20699;-68
2022/06/01 13:51:02;;;;;;;0.40;0.20;;;21.30;58.70;;;;;;4903244;29;20911;-69